Time;durP1;ratioP1;P1;durP2;ratioP2;P2;SDS_P1;SDS_P2;PMS_P1;PMS_P2;Temp;Humidity;BMP_temperature;BMP_pressure;BME280_temperature;BME280_humidity;BME280_pressure;Samples;Min_cycle;Max_cycle;Signal;HPM_P1;HPM_P2
2022/10/05 00:00:00;;;;;;;6.70;4.43;;;21.20;55.40;;;;;;6295661;28;20017;-67
2022/10/05 00:03:09;;;;;;;6.30;3.72;;;21.20;55.30;;;;;;6296828;28;20087;-67
2022/10/05 00:06:11;;;;;;;5.18;3.70;;;21.20;55.40;;;;;;6296659;28;20074;-67
2022/10/05 00:09:19;;;;;;;6.15;3.88;;;21.20;55.30;;;;;;6296910;28;20055;-67
2022/10/05 00:12:21;;;;;;;6.93;4.25;;;21.20;55.40;;;;;;6295180;28;20028;-68
2022/10/05 00:15:22;;;;;;;6.85;4.05;;;21.20;55.40;;;;;;6296522;28;20027;-67
2022/10/05 00:18:23;;;;;;;4.75;3.13;;;21.20;55.40;;;;;;6296502;28;20036;-67
2022/10/05 00:21:26;;;;;;;6.95;3.65;;;21.20;55.40;;;;;;6295547;28;20055;-67
2022/10/05 00:24:26;;;;;;;6.32;3.95;;;21.20;55.40;;;;;;6296365;28;20467;-67
2022/10/05 00:27:36;;;;;;;5.22;3.58;;;21.20;55.50;;;;;;6296216;28;20024;-67
2022/10/05 00:30:37;;;;;;;7.22;4.18;;;21.20;55.40;;;;;;6294964;28;20020;-68
2022/10/05 00:33:37;;;;;;;5.22;3.50;;;21.20;55.40;;;;;;6295994;28;20024;-68
2022/10/05 00:36:39;;;;;;;5.20;3.60;;;21.20;55.40;;;;;;6296036;28;20118;-68
2022/10/05 00:39:41;;;;;;;5.20;3.20;;;21.20;55.40;;;;;;6295268;28;20449;-68
2022/10/05 00:43:05;;;;;;;6.13;3.88;;;21.20;55.40;;;;;;6296223;28;20056;-67
2022/10/05 00:46:10;;;;;;;4.40;3.10;;;21.20;55.50;;;;;;6295718;28;20029;-67
2022/10/05 00:49:26;;;;;;;5.45;3.50;;;21.20;55.40;;;;;;6295486;28;20422;-67
2022/10/05 00:52:55;;;;;;;5.40;3.42;;;21.20;55.40;;;;;;6295974;28;20111;-67
2022/10/05 00:55:59;;;;;;;4.70;3.17;;;21.20;55.50;;;;;;6295335;28;20064;-68
2022/10/05 00:59:18;;;;;;;6.05;3.38;;;21.20;55.50;;;;;;6295373;28;20021;-68
2022/10/05 01:02:28;;;;;;;4.07;2.95;;;21.20;55.50;;;;;;6295528;28;20099;-67
2022/10/05 01:06:02;;;;;;;5.40;3.25;;;21.20;55.50;;;;;;6295301;28;20028;-67
2022/10/05 01:09:30;;;;;;;5.13;2.95;;;21.20;55.50;;;;;;6295429;28;20024;-68
2022/10/05 01:12:59;;;;;;;5.88;3.67;;;21.20;55.50;;;;;;6295251;28;20024;-67
2022/10/05 01:16:20;;;;;;;5.10;3.33;;;21.20;55.50;;;;;;6294687;28;20096;-68
2022/10/05 01:19:51;;;;;;;4.32;2.97;;;21.20;55.50;;;;;;6294881;28;20025;-67
2022/10/05 01:23:24;;;;;;;5.28;3.35;;;21.20;55.60;;;;;;6294940;28;20100;-67
2022/10/05 01:26:42;;;;;;;5.07;2.92;;;21.20;55.60;;;;;;6291826;28;20439;-67
2022/10/05 01:30:04;;;;;;;4.53;3.20;;;21.20;55.50;;;;;;6294874;28;20095;-68
2022/10/05 01:33:17;;;;;;;4.15;2.70;;;21.20;55.50;;;;;;6293573;28;20032;-67
2022/10/05 01:36:30;;;;;;;5.57;3.03;;;21.20;55.60;;;;;;6294335;28;20048;-67
2022/10/05 01:39:57;;;;;;;5.60;3.03;;;21.20;55.50;;;;;;6294359;28;20020;-67
2022/10/05 01:43:04;;;;;;;4.60;3.10;;;21.20;55.60;;;;;;6293301;28;20029;-67
2022/10/05 01:46:26;;;;;;;4.70;3.00;;;21.20;55.60;;;;;;6294442;28;20525;-68
2022/10/05 01:49:38;;;;;;;4.28;2.63;;;21.20;55.60;;;;;;6294163;28;20048;-67
2022/10/05 01:53:06;;;;;;;3.38;2.40;;;21.20;55.60;;;;;;6294386;28;20023;-67
2022/10/05 01:56:41;;;;;;;5.45;3.00;;;21.20;55.60;;;;;;6294276;28;20021;-68
2022/10/05 02:00:07;;;;;;;4.07;2.67;;;21.20;55.60;;;;;;6294307;28;20024;-68
2022/10/05 02:03:18;;;;;;;4.78;2.75;;;21.10;55.50;;;;;;6294217;28;20485;-67
2022/10/05 02:06:23;;;;;;;4.15;2.70;;;21.20;55.60;;;;;;6294385;28;20491;-68
2022/10/05 02:09:50;;;;;;;3.63;2.50;;;21.10;55.50;;;;;;6294131;28;20040;-68
2022/10/05 02:12:59;;;;;;;3.90;2.80;;;21.20;55.60;;;;;;6293654;28;20094;-67
2022/10/05 02:16:06;;;;;;;4.00;2.47;;;21.20;55.60;;;;;;6294281;28;20034;-67
2022/10/05 02:19:33;;;;;;;4.55;2.60;;;21.10;55.50;;;;;;6293836;28;20021;-68
2022/10/05 02:22:45;;;;;;;3.35;2.47;;;21.10;55.60;;;;;;6292667;28;20016;-68
2022/10/05 02:25:50;;;;;;;4.05;2.45;;;21.10;55.50;;;;;;6293911;28;20027;-67
2022/10/05 02:28:58;;;;;;;3.72;2.53;;;21.20;55.70;;;;;;6293669;28;20477;-68
2022/10/05 02:32:10;;;;;;;3.92;2.55;;;21.10;55.60;;;;;;6294110;28;20074;-67
2022/10/05 02:35:16;;;;;;;2.83;2.17;;;21.10;55.50;;;;;;6293951;28;20016;-68
2022/10/05 02:38:28;;;;;;;3.15;2.35;;;21.10;55.60;;;;;;6294119;28;20025;-67
2022/10/05 02:41:50;;;;;;;3.40;2.47;;;21.10;55.60;;;;;;6294123;28;20025;-68
2022/10/05 02:45:02;;;;;;;3.28;2.15;;;21.10;55.60;;;;;;6293907;28;20531;-67
2022/10/05 02:48:30;;;;;;;3.72;2.55;;;21.10;55.60;;;;;;6293313;28;20040;-68
2022/10/05 02:51:41;;;;;;;3.45;2.25;;;21.10;55.60;;;;;;6293567;28;20032;-68
2022/10/05 02:55:06;;;;;;;3.33;2.28;;;21.10;55.60;;;;;;6293667;28;20111;-67
2022/10/05 02:58:13;;;;;;;3.85;2.50;;;21.10;55.60;;;;;;6293250;28;20428;-68
2022/10/05 03:01:52;;;;;;;3.20;2.30;;;21.10;55.60;;;;;;6293518;28;20060;-67
2022/10/05 03:05:08;;;;;;;2.63;2.00;;;21.10;55.60;;;;;;6285053;28;20039;-66
2022/10/05 03:08:17;;;;;;;3.47;2.17;;;21.10;55.70;;;;;;6298293;28;20020;-66
2022/10/05 03:11:39;;;;;;;3.60;2.25;;;21.10;55.60;;;;;;6298538;28;20032;-68
2022/10/05 03:15:05;;;;;;;3.42;2.30;;;21.10;55.60;;;;;;6297964;28;20121;-66
2022/10/05 03:18:43;;;;;;;2.85;2.20;;;21.10;55.60;;;;;;6297813;28;20032;-67
2022/10/05 03:22:19;;;;;;;3.47;2.42;;;21.10;55.60;;;;;;6296459;28;20021;-67
2022/10/05 03:25:54;;;;;;;3.03;2.00;;;21.10;55.60;;;;;;6295390;28;20044;-67
2022/10/05 03:29:26;;;;;;;2.30;1.90;;;21.10;55.60;;;;;;6297664;28;20025;-67
2022/10/05 03:32:48;;;;;;;2.92;2.03;;;21.10;55.70;;;;;;6296392;28;20113;-68
2022/10/05 03:35:52;;;;;;;2.63;1.88;;;21.10;55.60;;;;;;6297591;28;20029;-68
2022/10/05 03:38:52;;;;;;;4.03;2.08;;;21.10;55.70;;;;;;6296302;28;20024;-68
2022/10/05 03:42:07;;;;;;;2.72;1.95;;;21.10;55.70;;;;;;6297353;28;20032;-67
2022/10/05 03:45:29;;;;;;;3.33;2.13;;;21.10;55.60;;;;;;6297328;28;20017;-68
2022/10/05 03:48:50;;;;;;;2.67;1.88;;;21.10;55.70;;;;;;6297141;28;20037;-68
2022/10/05 03:52:11;;;;;;;3.30;2.10;;;21.10;55.60;;;;;;6297112;28;20024;-67
2022/10/05 03:55:47;;;;;;;3.17;2.17;;;21.10;55.70;;;;;;6295679;28;20020;-67
2022/10/05 03:59:01;;;;;;;2.72;1.83;;;21.10;55.70;;;;;;6297562;28;20040;-68
2022/10/05 04:02:06;;;;;;;3.10;1.70;;;21.10;55.70;;;;;;6297056;28;20054;-67
2022/10/05 04:05:09;;;;;;;3.47;2.08;;;21.10;56.30;;;;;;6296677;28;20361;-68
2022/10/05 04:08:45;;;;;;;3.05;1.92;;;21.10;55.70;;;;;;6297171;28;20099;-68
2022/10/05 04:11:54;;;;;;;2.30;1.73;;;21.10;55.70;;;;;;6296855;28;20029;-68
2022/10/05 04:15:20;;;;;;;2.67;1.70;;;21.10;55.70;;;;;;6295089;28;20032;-68
2022/10/05 04:18:33;;;;;;;1.80;1.55;;;21.10;55.70;;;;;;6295951;28;20068;-68
2022/10/05 04:21:45;;;;;;;3.85;2.00;;;21.10;55.70;;;;;;6296417;28;20061;-68
2022/10/05 04:24:59;;;;;;;2.70;1.80;;;21.10;56.40;;;;;;6296457;28;20025;-68
2022/10/05 04:28:32;;;;;;;2.90;1.90;;;21.10;55.70;;;;;;6296305;28;20017;-67
2022/10/05 04:31:36;;;;;;;2.80;1.95;;;21.10;55.80;;;;;;6294597;28;20529;-67
2022/10/05 04:34:52;;;;;;;2.33;1.65;;;21.10;55.80;;;;;;6296089;28;20013;-68
2022/10/05 04:38:18;;;;;;;3.00;1.90;;;21.10;55.80;;;;;;6294764;28;20028;-67
2022/10/05 04:41:42;;;;;;;2.00;1.40;;;21.10;55.70;;;;;;6295797;28;20381;-68
2022/10/05 04:45:01;;;;;;;3.60;2.30;;;21.10;55.70;;;;;;6294368;28;20115;-67
2022/10/05 04:48:16;;;;;;;2.83;1.90;;;21.10;55.70;;;;;;6295836;28;20118;-67
2022/10/05 04:51:30;;;;;;;2.20;1.67;;;21.10;55.80;;;;;;6295869;28;20021;-67
2022/10/05 04:54:55;;;;;;;2.30;1.70;;;21.10;55.70;;;;;;6295555;28;20465;-68
2022/10/05 04:58:37;;;;;;;1.73;1.33;;;21.10;55.80;;;;;;6295605;28;20028;-67
2022/10/05 05:02:21;;;;;;;1.88;1.60;;;21.00;55.60;;;;;;6297835;28;20031;-68
2022/10/05 05:05:44;;;;;;;3.03;1.52;;;21.00;55.60;;;;;;6294525;28;20520;-68
2022/10/05 05:09:12;;;;;;;2.40;1.80;;;21.10;55.80;;;;;;6295500;28;20020;-67
2022/10/05 05:12:29;;;;;;;2.03;1.58;;;21.10;55.70;;;;;;6295002;28;20028;-67
2022/10/05 05:16:01;;;;;;;2.15;1.60;;;21.00;55.70;;;;;;6295164;28;20568;-67
2022/10/05 05:19:13;;;;;;;2.65;1.98;;;21.00;55.70;;;;;;6295184;28;20076;-67
2022/10/05 05:22:32;;;;;;;1.50;1.40;;;21.00;56.40;;;;;;6295079;28;20021;-67
2022/10/05 05:25:47;;;;;;;1.90;1.45;;;21.10;55.80;;;;;;6294342;28;20032;-67
2022/10/05 05:29:15;;;;;;;2.75;1.60;;;21.00;55.70;;;;;;6289039;28;20074;-66
2022/10/05 05:32:51;;;;;;;2.58;1.50;;;21.10;55.80;;;;;;6294372;28;20024;-67
2022/10/05 05:36:11;;;;;;;4.35;1.50;;;21.10;55.80;;;;;;6290704;28;20036;-66
2022/10/05 05:39:23;;;;;;;4.60;1.70;;;21.10;56.00;;;;;;6294108;28;20532;-67
2022/10/05 05:42:49;;;;;;;2.53;1.65;;;21.10;56.20;;;;;;6293926;28;20024;-67
2022/10/05 05:46:15;;;;;;;2.40;1.48;;;21.10;56.30;;;;;;6294091;28;20035;-67
2022/10/05 05:49:28;;;;;;;5.80;2.00;;;21.10;56.30;;;;;;6292261;28;20080;-66
2022/10/05 05:52:35;;;;;;;2.83;1.38;;;21.10;56.30;;;;;;6294104;28;20024;-66
2022/10/05 05:55:43;;;;;;;2.35;1.50;;;21.10;56.20;;;;;;6293476;28;20119;-67
2022/10/05 05:59:20;;;;;;;2.17;1.50;;;21.10;56.10;;;;;;6292567;28;20016;-66
2022/10/05 06:02:30;;;;;;;2.60;1.45;;;21.10;56.10;;;;;;6295890;28;20037;-66
2022/10/05 06:05:33;;;;;;;3.78;1.52;;;21.10;56.10;;;;;;6294578;28;20027;-65
2022/10/05 06:08:48;;;;;;;5.40;1.50;;;21.00;56.10;;;;;;6311644;28;20024;-66
2022/10/05 06:11:52;;;;;;;2.17;1.40;;;21.00;56.20;;;;;;6321099;28;20039;-65
2022/10/05 06:15:03;;;;;;;3.22;1.63;;;21.00;56.10;;;;;;6319486;28;20031;-66
2022/10/05 06:18:11;;;;;;;1.88;1.30;;;21.10;56.80;;;;;;6321021;28;20034;-66
2022/10/05 06:21:18;;;;;;;2.65;1.50;;;21.10;56.10;;;;;;6306691;28;20021;-67
2022/10/05 06:24:35;;;;;;;4.82;1.30;;;21.10;56.10;;;;;;6294399;28;20112;-66
2022/10/05 06:27:56;;;;;;;2.35;1.40;;;21.00;56.00;;;;;;6296021;28;20458;-66
2022/10/05 06:31:16;;;;;;;1.83;1.20;;;21.00;56.00;;;;;;6306338;28;20032;-68
2022/10/05 06:34:37;;;;;;;1.98;1.45;;;21.00;56.10;;;;;;6302765;28;20108;-66
2022/10/05 06:37:44;;;;;;;2.25;1.27;;;21.00;56.00;;;;;;6296327;28;20389;-67
2022/10/05 06:41:26;;;;;;;3.25;1.55;;;21.00;56.10;;;;;;6300663;28;20013;-67
2022/10/05 06:44:46;;;;;;;2.25;1.25;;;21.00;56.00;;;;;;6297650;28;20028;-66
2022/10/05 06:48:03;;;;;;;2.72;1.30;;;21.00;56.00;;;;;;6296168;28;20555;-67
2022/10/05 06:51:17;;;;;;;3.20;1.63;;;21.00;56.00;;;;;;6275762;28;20021;-66
2022/10/05 06:54:30;;;;;;;1.45;1.20;;;21.00;56.00;;;;;;6275429;28;20028;-67
2022/10/05 06:57:52;;;;;;;3.05;1.38;;;21.00;56.00;;;;;;6275492;28;20032;-67
2022/10/05 07:01:11;;;;;;;3.03;1.35;;;21.00;56.00;;;;;;6274225;28;20044;-67
2022/10/05 07:04:23;;;;;;;2.67;1.60;;;21.00;56.00;;;;;;6275236;28;20017;-66
2022/10/05 07:07:49;;;;;;;2.13;1.35;;;21.00;56.00;;;;;;6275318;28;20497;-66
2022/10/05 07:11:31;;;;;;;2.13;1.20;;;21.00;56.00;;;;;;6275390;28;20108;-66
2022/10/05 07:14:42;;;;;;;1.33;1.10;;;21.00;56.00;;;;;;6274892;28;20206;-66
2022/10/05 07:17:59;;;;;;;2.33;1.50;;;21.00;56.00;;;;;;6275101;28;20358;-66
2022/10/05 07:21:27;;;;;;;1.83;1.05;;;21.00;56.00;;;;;;6274813;28;20036;-66
2022/10/05 07:24:41;;;;;;;2.08;1.50;;;21.00;56.00;;;;;;6273886;28;20053;-67
2022/10/05 07:28:06;;;;;;;1.17;0.80;;;21.00;56.00;;;;;;6272927;28;20041;-65
2022/10/05 07:31:17;;;;;;;2.40;1.27;;;21.00;56.00;;;;;;6274695;28;20259;-66
2022/10/05 07:34:47;;;;;;;1.35;0.93;;;21.00;56.00;;;;;;6274017;28;20091;-67
2022/10/05 07:37:54;;;;;;;1.88;1.30;;;21.00;56.80;;;;;;6274517;28;20032;-67
2022/10/05 07:41:14;;;;;;;1.38;1.00;;;21.00;56.00;;;;;;6273040;28;20053;-66
2022/10/05 07:44:29;;;;;;;2.35;1.30;;;21.00;56.00;;;;;;6273157;28;20025;-66
2022/10/05 07:47:40;;;;;;;4.80;1.25;;;21.00;56.00;;;;;;6277047;28;20051;-67
2022/10/05 07:50:55;;;;;;;1.83;1.30;;;21.00;56.10;;;;;;6298263;28;20035;-65
2022/10/05 07:54:05;;;;;;;;;;;21.00;56.10;;;;;;6299471;28;20025;-66
2022/10/05 07:57:26;;;;;;;1.83;1.20;;;21.00;56.00;;;;;;6298495;28;20007;-66
2022/10/05 08:00:59;;;;;;;1.33;1.10;;;21.00;56.40;;;;;;6296915;28;20054;-67
2022/10/05 08:04:09;;;;;;;1.73;1.13;;;21.00;56.40;;;;;;6298040;28;20016;-67
2022/10/05 08:07:15;;;;;;;1.42;1.05;;;21.00;56.40;;;;;;6297460;28;20024;-65
2022/10/05 08:10:32;;;;;;;2.10;1.20;;;21.00;56.40;;;;;;6297423;28;20097;-67
2022/10/05 08:13:50;;;;;;;1.98;1.23;;;21.00;56.30;;;;;;6296354;28;20024;-66
2022/10/05 08:16:57;;;;;;;1.60;1.20;;;21.00;56.40;;;;;;6298038;28;20821;-64
2022/10/05 08:20:20;;;;;;;4.05;1.50;;;21.00;56.40;;;;;;6297968;28;20028;-67
2022/10/05 08:23:37;;;;;;;2.25;1.10;;;21.00;56.50;;;;;;6297389;28;20024;-66
2022/10/05 08:26:55;;;;;;;1.70;1.20;;;21.00;56.50;;;;;;6297401;28;20020;-67
2022/10/05 08:30:03;;;;;;;1.88;1.20;;;21.00;56.50;;;;;;6298027;28;20020;-68
2022/10/05 08:33:13;;;;;;;1.25;1.00;;;21.00;56.50;;;;;;6297636;28;20112;-66
2022/10/05 08:36:18;;;;;;;1.80;1.13;;;21.00;56.50;;;;;;6297744;28;20048;-68
2022/10/05 08:39:23;;;;;;;5.28;1.02;;;21.00;56.50;;;;;;6310335;28;20052;-65
2022/10/05 08:42:55;;;;;;;1.80;1.00;;;21.00;56.50;;;;;;6297502;28;20435;-66
2022/10/05 08:46:05;;;;;;;1.30;1.00;;;21.00;56.50;;;;;;6297278;28;20029;-66
2022/10/05 08:49:17;;;;;;;1.17;1.00;;;21.00;56.50;;;;;;6297490;28;20101;-68
2022/10/05 08:52:18;;;;;;;1.40;1.10;;;21.00;56.50;;;;;;6297703;28;20056;-69
2022/10/05 08:55:33;;;;;;;1.13;0.82;;;21.00;56.50;;;;;;6297024;28;20025;-69
2022/10/05 08:59:03;;;;;;;1.17;0.95;;;21.00;56.50;;;;;;6297203;28;20112;-67
2022/10/05 09:02:27;;;;;;;1.40;0.90;;;21.00;56.50;;;;;;6296691;28;20020;-68
2022/10/05 09:05:40;;;;;;;1.20;0.80;;;21.00;56.50;;;;;;6297001;28;20111;-67
2022/10/05 09:09:07;;;;;;;1.85;1.15;;;21.00;56.50;;;;;;6295627;28;20370;-67
2022/10/05 09:12:27;;;;;;;1.77;1.00;;;21.00;56.50;;;;;;6295864;28;20504;-67
2022/10/05 09:15:54;;;;;;;1.10;0.95;;;21.00;56.70;;;;;;6296760;28;20020;-67
2022/10/05 09:18:58;;;;;;;1.58;0.95;;;21.00;56.60;;;;;;6297103;28;20103;-67
2022/10/05 09:22:20;;;;;;;1.45;1.00;;;21.00;56.60;;;;;;6296630;28;20465;-67
2022/10/05 09:25:22;;;;;;;1.02;0.93;;;21.00;56.60;;;;;;6296197;28;20100;-67
2022/10/05 09:28:41;;;;;;;1.55;0.98;;;21.00;56.60;;;;;;6296838;28;20556;-66
2022/10/05 09:32:09;;;;;;;2.65;1.10;;;21.00;56.70;;;;;;6296516;28;20393;-67
2022/10/05 09:35:34;;;;;;;1.23;0.90;;;21.00;56.70;;;;;;6296404;28;20474;-67
2022/10/05 09:38:50;;;;;;;1.30;0.90;;;21.00;56.70;;;;;;6295016;28;20032;-67
2022/10/05 09:42:08;;;;;;;1.98;1.08;;;21.00;56.70;;;;;;6296690;28;20505;-67
2022/10/05 09:45:52;;;;;;;1.67;1.17;;;21.00;56.70;;;;;;6296572;28;20485;-67
2022/10/05 09:49:10;;;;;;;1.20;0.90;;;21.00;56.60;;;;;;6295063;28;20143;-66
2022/10/05 09:52:11;;;;;;;3.42;0.95;;;21.00;56.70;;;;;;6294204;28;20119;-68
2022/10/05 09:55:33;;;;;;;1.25;0.88;;;21.00;56.70;;;;;;6293729;28;20048;-67
2022/10/05 09:58:47;;;;;;;1.58;0.90;;;21.00;56.70;;;;;;6293060;28;20067;-67
2022/10/05 10:02:10;;;;;;;1.50;0.90;;;21.00;56.70;;;;;;6292250;28;20107;-67
2022/10/05 10:05:33;;;;;;;0.88;0.80;;;21.00;56.70;;;;;;6280101;28;20017;-67
2022/10/05 10:08:48;;;;;;;1.10;0.90;;;21.00;56.70;;;;;;6274093;28;20031;-67
2022/10/05 10:11:54;;;;;;;1.75;1.20;;;21.00;56.70;;;;;;6278899;28;20025;-67
2022/10/05 10:15:08;;;;;;;1.40;1.00;;;21.00;56.70;;;;;;6282771;28;20028;-67
2022/10/05 10:18:27;;;;;;;1.70;1.00;;;21.00;56.70;;;;;;6293515;28;20020;-67
2022/10/05 10:21:52;;;;;;;1.13;0.70;;;21.00;56.70;;;;;;6293631;28;20032;-67
2022/10/05 10:25:15;;;;;;;1.33;0.90;;;21.00;56.70;;;;;;6290789;28;20039;-67
2022/10/05 10:28:34;;;;;;;1.23;0.80;;;21.00;56.80;;;;;;6293347;28;20036;-67
2022/10/05 10:32:18;;;;;;;1.98;0.80;;;21.00;56.70;;;;;;6284698;28;20093;-67
2022/10/05 10:35:36;;;;;;;1.27;0.80;;;21.00;56.80;;;;;;6293032;28;20024;-67
2022/10/05 10:39:01;;;;;;;1.65;0.93;;;21.00;56.70;;;;;;6293117;28;20081;-67
2022/10/05 10:42:14;;;;;;;2.60;1.10;;;21.00;56.80;;;;;;6292812;28;20041;-67
2022/10/05 10:45:40;;;;;;;0.82;0.60;;;21.00;56.90;;;;;;6292881;28;20028;-67
2022/10/05 10:49:30;;;;;;;1.00;0.80;;;21.00;56.80;;;;;;6295989;28;20510;-67
2022/10/05 10:52:58;;;;;;;1.25;0.80;;;21.00;56.80;;;;;;6290388;28;20036;-67
2022/10/05 10:56:17;;;;;;;1.23;0.88;;;21.00;57.50;;;;;;6277972;28;20508;-67
2022/10/05 10:59:34;;;;;;;1.30;0.85;;;21.00;56.80;;;;;;6273765;28;20020;-67
2022/10/05 11:02:45;;;;;;;0.88;0.70;;;21.00;56.90;;;;;;6291857;28;20445;-67
2022/10/05 11:06:16;;;;;;;1.02;0.80;;;21.00;56.90;;;;;;6290534;28;20477;-67
2022/10/05 11:09:44;;;;;;;1.67;0.88;;;21.00;56.90;;;;;;6280803;28;20036;-67
2022/10/05 11:13:10;;;;;;;1.20;0.70;;;21.00;56.90;;;;;;6298332;28;20028;-67
2022/10/05 11:16:49;;;;;;;1.02;0.80;;;21.00;56.80;;;;;;6285087;28;20082;-67
2022/10/05 11:20:27;;;;;;;1.20;0.75;;;21.00;56.80;;;;;;6298947;28;20070;-68
2022/10/05 11:23:34;;;;;;;1.88;0.90;;;21.00;56.80;;;;;;6315951;28;20024;-67
2022/10/05 11:27:02;;;;;;;5.43;0.82;;;21.00;56.90;;;;;;6302509;28;20059;-68
2022/10/05 11:30:36;;;;;;;1.05;0.80;;;21.00;56.70;;;;;;6297955;28;20020;-68
2022/10/05 11:34:05;;;;;;;1.02;0.82;;;21.00;56.90;;;;;;6304609;28;20476;-67
2022/10/05 11:37:21;;;;;;;1.27;0.80;;;21.00;56.80;;;;;;6313124;28;20480;-66
2022/10/05 11:40:55;;;;;;;2.22;0.50;;;21.00;56.80;;;;;;6313625;28;20246;-66
2022/10/05 11:44:18;;;;;;;0.70;0.63;;;21.00;56.70;;;;;;6295900;28;20440;-66
2022/10/05 11:47:48;;;;;;;0.90;0.70;;;21.00;56.70;;;;;;6293308;28;20028;-66
2022/10/05 11:51:07;;;;;;;1.85;0.70;;;21.00;56.70;;;;;;6286189;28;20031;-67
2022/10/05 11:54:27;;;;;;;1.33;0.77;;;21.00;56.70;;;;;;6277227;28;20021;-67
2022/10/05 11:57:36;;;;;;;1.00;0.75;;;21.00;56.50;;;;;;6306644;28;20024;-66
2022/10/05 12:00:49;;;;;;;0.90;0.60;;;21.00;56.30;;;;;;6282625;28;20025;-67
2022/10/05 12:04:04;;;;;;;3.83;0.85;;;21.10;56.30;;;;;;6291333;28;20447;-67
2022/10/05 12:08:10;;;;;;;0.70;0.60;;;21.10;56.30;;;;;;6280929;28;20036;-67
2022/10/05 12:11:13;;;;;;;2.72;0.77;;;21.10;56.20;;;;;;6232949;28;20101;-67
2022/10/05 12:14:31;;;;;;;1.27;0.80;;;21.10;56.10;;;;;;6292253;28;20060;-67
2022/10/05 12:17:40;;;;;;;2.03;0.98;;;21.10;56.30;;;;;;6296787;28;20017;-67
2022/10/05 12:20:57;;;;;;;0.90;0.73;;;21.10;56.30;;;;;;6296725;28;20489;-67
2022/10/05 12:24:31;;;;;;;1.27;0.60;;;21.10;56.40;;;;;;6295026;28;20070;-66
2022/10/05 12:27:45;;;;;;;2.30;0.85;;;21.10;56.50;;;;;;6295815;28;20374;-67
2022/10/05 12:31:13;;;;;;;0.80;0.70;;;21.00;56.50;;;;;;6297571;28;20016;-66
2022/10/05 12:34:19;;;;;;;3.42;0.80;;;21.00;56.60;;;;;;6295801;28;20035;-67
2022/10/05 12:37:37;;;;;;;1.67;0.70;;;21.00;56.70;;;;;;6297859;28;20021;-67
2022/10/05 12:41:04;;;;;;;1.02;0.75;;;21.00;56.70;;;;;;6318417;28;20095;-66
2022/10/05 12:44:17;;;;;;;1.33;0.70;;;21.00;56.80;;;;;;6293830;28;20090;-66
2022/10/05 12:47:26;;;;;;;1.02;0.80;;;21.00;56.80;;;;;;6284843;28;20059;-66
2022/10/05 12:50:35;;;;;;;2.45;0.88;;;21.00;56.80;;;;;;6296366;28;20025;-66
2022/10/05 12:53:56;;;;;;;1.13;0.75;;;21.00;56.80;;;;;;6293172;28;20025;-66
2022/10/05 12:57:24;;;;;;;0.82;0.70;;;21.00;56.90;;;;;;6295311;28;20033;-67
2022/10/05 13:00:27;;;;;;;1.23;0.82;;;21.00;56.80;;;;;;6294422;28;20425;-67
2022/10/05 13:03:35;;;;;;;1.50;0.70;;;21.00;56.90;;;;;;6295587;28;20024;-67
2022/10/05 13:07:12;;;;;;;1.58;0.93;;;21.00;56.90;;;;;;6296219;28;20049;-67
2022/10/05 13:10:12;;;;;;;6.60;0.90;;;21.00;56.80;;;;;;6293355;28;20119;-67
2022/10/05 13:13:35;;;;;;;1.75;0.70;;;21.00;56.80;;;;;;6295208;28;20031;-67
2022/10/05 13:16:45;;;;;;;3.40;1.02;;;21.10;56.80;;;;;;6275658;28;20022;-67
2022/10/05 13:19:55;;;;;;;2.22;0.80;;;21.10;56.80;;;;;;6295708;28;20016;-67
2022/10/05 13:23:24;;;;;;;1.90;0.73;;;21.00;56.70;;;;;;6294330;28;20029;-67
2022/10/05 13:26:47;;;;;;;2.72;0.82;;;21.00;56.80;;;;;;6295553;28;20439;-66
2022/10/05 13:30:01;;;;;;;3.38;0.70;;;21.00;56.80;;;;;;6295543;28;20401;-66
2022/10/05 13:33:14;;;;;;;3.35;0.60;;;21.00;56.80;;;;;;6294399;28;20501;-66
2022/10/05 13:36:38;;;;;;;1.10;0.70;;;21.00;56.80;;;;;;6293892;28;20077;-67
2022/10/05 13:39:50;;;;;;;1.50;0.70;;;21.00;56.90;;;;;;6269122;28;20060;-67
2022/10/05 13:42:59;;;;;;;1.73;0.80;;;21.00;56.90;;;;;;6281911;28;20024;-67
2022/10/05 13:46:10;;;;;;;2.15;0.70;;;21.00;56.90;;;;;;6293585;28;20786;-66
2022/10/05 13:49:13;;;;;;;1.48;0.70;;;21.00;57.00;;;;;;6294547;28;20052;-66
2022/10/05 13:52:23;;;;;;;1.10;0.80;;;21.00;56.90;;;;;;6295572;28;20021;-66
2022/10/05 13:55:31;;;;;;;2.08;0.82;;;21.00;57.60;;;;;;6250436;28;20379;-66
2022/10/05 13:58:41;;;;;;;1.58;0.95;;;21.00;56.90;;;;;;6268918;28;20029;-67
2022/10/05 14:01:56;;;;;;;3.40;0.70;;;21.00;57.00;;;;;;6243893;28;20036;-66
2022/10/05 14:04:59;;;;;;;1.17;0.80;;;21.00;56.90;;;;;;6253038;28;20021;-66
2022/10/05 14:08:03;;;;;;;2.22;0.90;;;21.00;56.90;;;;;;6253091;28;20040;-66
2022/10/05 14:11:31;;;;;;;3.25;0.88;;;21.00;57.00;;;;;;6260806;28;20022;-66
2022/10/05 14:14:42;;;;;;;1.45;0.70;;;21.00;56.90;;;;;;6266733;28;20045;-66
2022/10/05 14:17:43;;;;;;;1.23;0.80;;;21.00;57.00;;;;;;6268654;28;20071;-67
2022/10/05 14:21:06;;;;;;;1.13;0.70;;;21.00;57.00;;;;;;6267816;28;20117;-66
2022/10/05 14:24:26;;;;;;;2.38;1.08;;;21.00;56.90;;;;;;6261035;28;20013;-66
2022/10/05 14:27:33;;;;;;;1.50;0.82;;;21.00;57.00;;;;;;6244379;28;20121;-66
2022/10/05 14:30:34;;;;;;;5.47;0.90;;;21.00;56.90;;;;;;6259488;28;20132;-66
2022/10/05 14:33:35;;;;;;;1.40;0.73;;;21.00;57.60;;;;;;6242173;28;20022;-67
2022/10/05 14:36:42;;;;;;;1.77;0.80;;;21.00;57.00;;;;;;6258837;28;20035;-66
2022/10/05 14:39:49;;;;;;;1.08;0.73;;;21.00;57.00;;;;;;6266317;28;20052;-66
2022/10/05 14:42:50;;;;;;;4.55;0.85;;;21.00;57.00;;;;;;6265651;28;20025;-66
2022/10/05 14:45:54;;;;;;;1.52;0.60;;;21.00;57.00;;;;;;6264240;28;20071;-66
2022/10/05 14:49:11;;;;;;;3.42;0.73;;;21.00;57.00;;;;;;6264583;28;20099;-66
2022/10/05 14:52:31;;;;;;;3.17;0.93;;;21.00;57.00;;;;;;6266621;28;20028;-66
2022/10/05 14:55:41;;;;;;;4.03;0.90;;;21.00;57.00;;;;;;6256986;28;20048;-66
2022/10/05 14:58:47;;;;;;;1.55;0.70;;;21.00;57.00;;;;;;6251538;28;20021;-66
2022/10/05 15:01:52;;;;;;;2.10;0.80;;;21.00;57.10;;;;;;6271362;28;20049;-66
2022/10/05 15:05:18;;;;;;;1.88;0.80;;;21.00;57.10;;;;;;6254967;28;20028;-67
2022/10/05 15:08:40;;;;;;;4.30;0.70;;;21.00;57.10;;;;;;6271058;28;20048;-66
2022/10/05 15:11:53;;;;;;;1.50;1.02;;;21.00;57.20;;;;;;6270628;28;20031;-67
2022/10/05 15:15:04;;;;;;;1.85;1.10;;;21.00;57.20;;;;;;6261688;28;20080;-66
2022/10/05 15:18:11;;;;;;;4.10;0.93;;;21.00;57.30;;;;;;6270529;28;20236;-66
2022/10/05 15:21:43;;;;;;;5.57;1.10;;;21.00;57.20;;;;;;6269041;28;20429;-66
2022/10/05 15:25:15;;;;;;;4.43;0.98;;;21.00;57.40;;;;;;6273777;28;20469;-66
2022/10/05 15:28:53;;;;;;;3.97;0.68;;;21.00;57.40;;;;;;6245028;28;20083;-67
2022/10/05 15:32:15;;;;;;;3.80;0.90;;;21.00;57.50;;;;;;6256294;28;20037;-67
2022/10/05 15:35:35;;;;;;;7.10;1.05;;;21.00;57.40;;;;;;6260518;28;20410;-67
2022/10/05 15:39:01;;;;;;;4.03;1.10;;;21.00;57.40;;;;;;6247373;28;20386;-67
2022/10/05 15:42:32;;;;;;;4.05;0.90;;;21.00;57.50;;;;;;6270381;28;20029;-67
2022/10/05 15:45:38;;;;;;;5.18;0.80;;;21.00;57.50;;;;;;6259054;28;20510;-66
2022/10/05 15:49:01;;;;;;;4.75;1.02;;;21.00;57.50;;;;;;6269878;28;20048;-67
2022/10/05 15:52:26;;;;;;;1.30;0.73;;;21.00;57.50;;;;;;6269000;28;20056;-66
2022/10/05 15:56:06;;;;;;;6.38;0.95;;;20.90;57.40;;;;;;6259993;28;20029;-67
2022/10/05 15:59:06;;;;;;;4.10;0.90;;;21.00;57.50;;;;;;6255783;28;20041;-66
2022/10/05 16:02:18;;;;;;;1.67;0.80;;;20.90;57.40;;;;;;6268527;28;20043;-67
2022/10/05 16:09:18;;;;;;;2.08;1.02;;;21.00;57.60;;;;;;6270175;28;20033;-66
2022/10/05 16:12:23;;;;;;;2.60;1.00;;;20.90;57.40;;;;;;6269890;28;20021;-66
2022/10/05 16:15:49;;;;;;;3.35;0.80;;;21.00;57.60;;;;;;6268770;28;20032;-66
2022/10/05 16:19:03;;;;;;;1.10;0.60;;;21.00;57.50;;;;;;6254749;28;20072;-67
2022/10/05 16:22:30;;;;;;;1.73;0.57;;;21.00;57.50;;;;;;6253383;28;20021;-66
2022/10/05 16:25:38;;;;;;;4.10;0.68;;;21.00;57.50;;;;;;6269983;28;20537;-66
2022/10/05 16:28:44;;;;;;;4.18;1.35;;;20.90;57.50;;;;;;6262406;28;20070;-66
2022/10/05 16:32:11;;;;;;;4.47;0.70;;;21.00;57.60;;;;;;6267212;28;20409;-67
2022/10/05 16:35:22;;;;;;;2.83;0.80;;;20.90;57.50;;;;;;6243265;28;20037;-67
2022/10/05 16:38:32;;;;;;;1.02;0.65;;;21.00;57.60;;;;;;6253548;28;20086;-67
2022/10/05 16:41:53;;;;;;;1.50;0.88;;;21.10;57.30;;;;;;6266125;28;20056;-67
2022/10/05 16:45:39;;;;;;;3.03;0.80;;;21.20;57.00;;;;;;6263416;28;20021;-67
2022/10/05 16:48:57;;;;;;;0.88;0.75;;;21.20;57.00;;;;;;6256344;28;20041;-67
2022/10/05 16:52:05;;;;;;;3.42;0.90;;;21.20;56.90;;;;;;6260064;28;20036;-66
2022/10/05 16:55:12;;;;;;;3.65;0.80;;;21.20;57.00;;;;;;6248526;28;20033;-66
2022/10/05 16:58:24;;;;;;;1.40;0.70;;;21.20;57.00;;;;;;6255826;28;20325;-67
2022/10/05 17:01:52;;;;;;;3.65;1.02;;;21.20;57.00;;;;;;6262783;28;20053;-67
2022/10/05 17:05:26;;;;;;;3.92;0.70;;;21.20;57.00;;;;;;6259919;28;20056;-67
2022/10/05 17:09:04;;;;;;;2.00;0.88;;;21.20;57.00;;;;;;6256660;28;20058;-67
2022/10/05 17:12:34;;;;;;;1.13;0.75;;;21.20;56.90;;;;;;6266505;28;20033;-67